sensor_id;sensor_type;location;lat;lon;timestamp;temperature;humidity
21255;DHT22;10785;50.674;17.954;2023-05-29T00:00:04;12.30;99.90
21255;DHT22;10785;50.674;17.954;2023-05-29T00:02:36;12.20;99.90
21255;DHT22;10785;50.674;17.954;2023-05-29T00:05:05;12.10;99.90
21255;DHT22;10785;50.674;17.954;2023-05-29T00:07:34;12.10;99.90
21255;DHT22;10785;50.674;17.954;2023-05-29T00:10:03;12.00;99.90
21255;DHT22;10785;50.674;17.954;2023-05-29T00:12:34;11.90;99.90
21255;DHT22;10785;50.674;17.954;2023-05-29T00:15:03;11.80;99.90
21255;DHT22;10785;50.674;17.954;2023-05-29T00:17:33;11.70;99.90
21255;DHT22;10785;50.674;17.954;2023-05-29T00:20:03;11.70;99.90
21255;DHT22;10785;50.674;17.954;2023-05-29T00:22:34;11.60;99.90
21255;DHT22;10785;50.674;17.954;2023-05-29T00:25:04;11.50;99.90
21255;DHT22;10785;50.674;17.954;2023-05-29T00:27:35;11.50;99.90
21255;DHT22;10785;50.674;17.954;2023-05-29T00:30:04;11.60;99.90
21255;DHT22;10785;50.674;17.954;2023-05-29T00:32:35;11.60;99.90
21255;DHT22;10785;50.674;17.954;2023-05-29T00:35:05;11.70;99.90
21255;DHT22;10785;50.674;17.954;2023-05-29T00:37:34;11.80;99.90
21255;DHT22;10785;50.674;17.954;2023-05-29T00:40:03;11.80;99.90
21255;DHT22;10785;50.674;17.954;2023-05-29T00:42:32;11.80;99.90
21255;DHT22;10785;50.674;17.954;2023-05-29T00:45:03;11.90;99.90
21255;DHT22;10785;50.674;17.954;2023-05-29T00:47:32;11.90;99.90
21255;DHT22;10785;50.674;17.954;2023-05-29T00:50:01;11.90;99.90
21255;DHT22;10785;50.674;17.954;2023-05-29T00:52:31;11.90;99.90
21255;DHT22;10785;50.674;17.954;2023-05-29T00:55:00;11.90;99.90
21255;DHT22;10785;50.674;17.954;2023-05-29T00:57:31;11.80;99.90
21255;DHT22;10785;50.674;17.954;2023-05-29T01:00:01;11.80;99.90
21255;DHT22;10785;50.674;17.954;2023-05-29T01:02:32;11.70;99.90
21255;DHT22;10785;50.674;17.954;2023-05-29T01:05:04;11.60;99.90
21255;DHT22;10785;50.674;17.954;2023-05-29T01:07:33;11.50;99.90
21255;DHT22;10785;50.674;17.954;2023-05-29T01:10:01;11.50;99.90
21255;DHT22;10785;50.674;17.954;2023-05-29T01:12:36;11.50;99.90
21255;DHT22;10785;50.674;17.954;2023-05-29T01:15:22;11.40;99.90
21255;DHT22;10785;50.674;17.954;2023-05-29T01:18:12;11.40;99.90
21255;DHT22;10785;50.674;17.954;2023-05-29T01:20:48;11.50;99.90
21255;DHT22;10785;50.674;17.954;2023-05-29T01:23:40;11.70;99.90
21255;DHT22;10785;50.674;17.954;2023-05-29T01:26:21;11.70;99.90
21255;DHT22;10785;50.674;17.954;2023-05-29T01:28:57;11.60;99.90
21255;DHT22;10785;50.674;17.954;2023-05-29T01:31:28;11.50;99.90
21255;DHT22;10785;50.674;17.954;2023-05-29T01:33:59;11.40;99.90
21255;DHT22;10785;50.674;17.954;2023-05-29T01:36:28;11.30;99.90
21255;DHT22;10785;50.674;17.954;2023-05-29T01:38:58;11.30;99.90
21255;DHT22;10785;50.674;17.954;2023-05-29T01:41:29;11.20;99.90
21255;DHT22;10785;50.674;17.954;2023-05-29T01:44:00;11.10;99.90
21255;DHT22;10785;50.674;17.954;2023-05-29T01:46:30;11.00;99.90
21255;DHT22;10785;50.674;17.954;2023-05-29T01:49:00;11.00;99.90
21255;DHT22;10785;50.674;17.954;2023-05-29T01:51:28;11.00;99.90
21255;DHT22;10785;50.674;17.954;2023-05-29T01:53:59;11.00;99.90
21255;DHT22;10785;50.674;17.954;2023-05-29T01:56:29;11.00;99.90
21255;DHT22;10785;50.674;17.954;2023-05-29T01:59:00;10.90;99.90
21255;DHT22;10785;50.674;17.954;2023-05-29T02:01:31;10.90;99.90
21255;DHT22;10785;50.674;17.954;2023-05-29T02:04:00;10.90;99.90
21255;DHT22;10785;50.674;17.954;2023-05-29T02:06:29;10.90;99.90
21255;DHT22;10785;50.674;17.954;2023-05-29T02:08:58;10.80;99.90
21255;DHT22;10785;50.674;17.954;2023-05-29T02:11:27;10.70;99.90
21255;DHT22;10785;50.674;17.954;2023-05-29T02:13:55;10.60;99.90
21255;DHT22;10785;50.674;17.954;2023-05-29T02:16:26;10.60;99.90
21255;DHT22;10785;50.674;17.954;2023-05-29T02:18:56;10.50;99.90
21255;DHT22;10785;50.674;17.954;2023-05-29T02:21:44;10.40;99.90
21255;DHT22;10785;50.674;17.954;2023-05-29T02:24:13;10.30;99.90
21255;DHT22;10785;50.674;17.954;2023-05-29T02:26:42;10.30;99.90
21255;DHT22;10785;50.674;17.954;2023-05-29T02:29:10;10.20;99.90
21255;DHT22;10785;50.674;17.954;2023-05-29T02:31:40;10.20;99.90
21255;DHT22;10785;50.674;17.954;2023-05-29T02:34:09;10.20;99.90
21255;DHT22;10785;50.674;17.954;2023-05-29T02:36:37;10.30;99.90
21255;DHT22;10785;50.674;17.954;2023-05-29T02:39:07;10.40;99.90
21255;DHT22;10785;50.674;17.954;2023-05-29T02:41:38;10.50;99.90
21255;DHT22;10785;50.674;17.954;2023-05-29T02:59:55;10.60;99.90
21255;DHT22;10785;50.674;17.954;2023-05-29T03:02:24;10.70;99.90
21255;DHT22;10785;50.674;17.954;2023-05-29T03:04:53;10.80;99.90
21255;DHT22;10785;50.674;17.954;2023-05-29T03:07:21;10.80;99.90
21255;DHT22;10785;50.674;17.954;2023-05-29T03:09:50;10.80;99.90
21255;DHT22;10785;50.674;17.954;2023-05-29T03:15:05;11.00;99.90
21255;DHT22;10785;50.674;17.954;2023-05-29T03:17:34;11.20;99.90
21255;DHT22;10785;50.674;17.954;2023-05-29T03:20:05;11.40;99.90
21255;DHT22;10785;50.674;17.954;2023-05-29T03:22:35;11.80;99.90
21255;DHT22;10785;50.674;17.954;2023-05-29T03:25:05;12.30;99.90
21255;DHT22;10785;50.674;17.954;2023-05-29T03:27:34;12.80;99.90
21255;DHT22;10785;50.674;17.954;2023-05-29T03:30:13;13.40;99.90
21255;DHT22;10785;50.674;17.954;2023-05-29T03:32:42;13.80;99.90
21255;DHT22;10785;50.674;17.954;2023-05-29T03:35:11;14.30;99.90
21255;DHT22;10785;50.674;17.954;2023-05-29T03:37:43;14.60;99.90
21255;DHT22;10785;50.674;17.954;2023-05-29T03:40:12;14.80;99.90
21255;DHT22;10785;50.674;17.954;2023-05-29T03:42:42;15.10;95.90
21255;DHT22;10785;50.674;17.954;2023-05-29T03:45:13;15.10;95.30
21255;DHT22;10785;50.674;17.954;2023-05-29T03:47:42;15.40;95.70
21255;DHT22;10785;50.674;17.954;2023-05-29T03:50:12;15.40;94.70
21255;DHT22;10785;50.674;17.954;2023-05-29T03:52:44;15.60;92.50
21255;DHT22;10785;50.674;17.954;2023-05-29T03:55:14;15.80;91.60
21255;DHT22;10785;50.674;17.954;2023-05-29T03:57:44;15.90;90.50
21255;DHT22;10785;50.674;17.954;2023-05-29T04:00:15;16.00;88.90
21255;DHT22;10785;50.674;17.954;2023-05-29T04:02:48;16.10;87.30
21255;DHT22;10785;50.674;17.954;2023-05-29T04:05:18;16.40;81.00
21255;DHT22;10785;50.674;17.954;2023-05-29T04:07:47;16.60;74.80
21255;DHT22;10785;50.674;17.954;2023-05-29T04:10:22;16.60;69.80
21255;DHT22;10785;50.674;17.954;2023-05-29T04:12:52;16.80;68.40
21255;DHT22;10785;50.674;17.954;2023-05-29T04:15:24;17.20;57.60
21255;DHT22;10785;50.674;17.954;2023-05-29T04:17:53;17.60;49.10
21255;DHT22;10785;50.674;17.954;2023-05-29T04:20:23;18.00;41.00
21255;DHT22;10785;50.674;17.954;2023-05-29T04:22:52;18.20;35.60
21255;DHT22;10785;50.674;17.954;2023-05-29T04:25:20;18.30;32.90
21255;DHT22;10785;50.674;17.954;2023-05-29T04:27:49;18.50;28.20
21255;DHT22;10785;50.674;17.954;2023-05-29T04:30:20;18.80;22.20
21255;DHT22;10785;50.674;17.954;2023-05-29T04:32:49;19.00;18.90
21255;DHT22;10785;50.674;17.954;2023-05-29T04:35:20;19.30;17.60
21255;DHT22;10785;50.674;17.954;2023-05-29T04:38:02;19.30;15.30
21255;DHT22;10785;50.674;17.954;2023-05-29T04:40:33;19.60;12.80
21255;DHT22;10785;50.674;17.954;2023-05-29T04:43:04;19.60;10.00
21255;DHT22;10785;50.674;17.954;2023-05-29T04:45:49;19.40;9.60
21255;DHT22;10785;50.674;17.954;2023-05-29T04:48:19;19.70;8.30
21255;DHT22;10785;50.674;17.954;2023-05-29T04:50:48;19.80;6.90
21255;DHT22;10785;50.674;17.954;2023-05-29T04:53:17;20.10;5.40
21255;DHT22;10785;50.674;17.954;2023-05-29T04:55:45;20.30;3.90
21255;DHT22;10785;50.674;17.954;2023-05-29T04:58:14;20.20;1.00
21255;DHT22;10785;50.674;17.954;2023-05-29T05:00:43;20.30;1.00
21255;DHT22;10785;50.674;17.954;2023-05-29T05:03:12;20.40;1.00
21255;DHT22;10785;50.674;17.954;2023-05-29T05:05:45;20.90;1.00
21255;DHT22;10785;50.674;17.954;2023-05-29T05:08:16;21.10;1.00
21255;DHT22;10785;50.674;17.954;2023-05-29T05:10:44;21.50;1.00
21255;DHT22;10785;50.674;17.954;2023-05-29T05:13:18;21.70;1.00
21255;DHT22;10785;50.674;17.954;2023-05-29T05:15:47;21.60;1.00
21255;DHT22;10785;50.674;17.954;2023-05-29T05:18:16;21.80;1.00
21255;DHT22;10785;50.674;17.954;2023-05-29T05:20:53;22.20;1.00
21255;DHT22;10785;50.674;17.954;2023-05-29T05:23:23;22.30;1.00
21255;DHT22;10785;50.674;17.954;2023-05-29T05:25:51;22.10;1.00
21255;DHT22;10785;50.674;17.954;2023-05-29T05:28:20;22.60;1.00
21255;DHT22;10785;50.674;17.954;2023-05-29T05:30:49;22.90;1.00
21255;DHT22;10785;50.674;17.954;2023-05-29T05:33:19;22.70;1.00
21255;DHT22;10785;50.674;17.954;2023-05-29T05:35:47;22.70;1.00
21255;DHT22;10785;50.674;17.954;2023-05-29T05:38:17;23.10;1.00
21255;DHT22;10785;50.674;17.954;2023-05-29T05:40:47;23.00;1.00
21255;DHT22;10785;50.674;17.954;2023-05-29T05:43:22;22.70;1.00
21255;DHT22;10785;50.674;17.954;2023-05-29T05:46:04;22.60;1.00
21255;DHT22;10785;50.674;17.954;2023-05-29T05:48:35;22.70;1.00
21255;DHT22;10785;50.674;17.954;2023-05-29T05:51:04;22.90;1.00
21255;DHT22;10785;50.674;17.954;2023-05-29T05:53:34;23.60;1.00
21255;DHT22;10785;50.674;17.954;2023-05-29T05:56:03;23.60;1.00
21255;DHT22;10785;50.674;17.954;2023-05-29T05:58:35;23.80;1.00
21255;DHT22;10785;50.674;17.954;2023-05-29T06:01:04;23.50;1.00
21255;DHT22;10785;50.674;17.954;2023-05-29T06:03:35;23.30;1.00
21255;DHT22;10785;50.674;17.954;2023-05-29T06:06:07;24.00;1.00
21255;DHT22;10785;50.674;17.954;2023-05-29T06:08:40;24.00;1.00
21255;DHT22;10785;50.674;17.954;2023-05-29T06:11:09;24.50;1.00
21255;DHT22;10785;50.674;17.954;2023-05-29T06:13:42;24.70;1.00
21255;DHT22;10785;50.674;17.954;2023-05-29T06:16:17;24.50;1.00
21255;DHT22;10785;50.674;17.954;2023-05-29T06:18:45;24.40;1.00
21255;DHT22;10785;50.674;17.954;2023-05-29T06:21:16;24.60;1.00
21255;DHT22;10785;50.674;17.954;2023-05-29T06:23:53;24.50;1.00
21255;DHT22;10785;50.674;17.954;2023-05-29T06:26:22;24.50;1.00
21255;DHT22;10785;50.674;17.954;2023-05-29T06:28:54;24.60;1.00
21255;DHT22;10785;50.674;17.954;2023-05-29T06:31:23;25.10;1.00
21255;DHT22;10785;50.674;17.954;2023-05-29T06:33:52;25.40;1.00
21255;DHT22;10785;50.674;17.954;2023-05-29T06:36:21;25.30;1.00
21255;DHT22;10785;50.674;17.954;2023-05-29T06:38:53;25.30;1.00
21255;DHT22;10785;50.674;17.954;2023-05-29T06:41:21;25.20;1.00
21255;DHT22;10785;50.674;17.954;2023-05-29T06:43:50;24.80;1.00
21255;DHT22;10785;50.674;17.954;2023-05-29T06:46:21;23.90;1.00
21255;DHT22;10785;50.674;17.954;2023-05-29T06:48:50;23.50;1.00
21255;DHT22;10785;50.674;17.954;2023-05-29T06:51:22;23.10;1.00
21255;DHT22;10785;50.674;17.954;2023-05-29T06:53:55;22.50;1.00
21255;DHT22;10785;50.674;17.954;2023-05-29T06:56:27;22.70;1.00
21255;DHT22;10785;50.674;17.954;2023-05-29T06:58:57;23.00;1.00
21255;DHT22;10785;50.674;17.954;2023-05-29T07:01:29;23.10;1.00
21255;DHT22;10785;50.674;17.954;2023-05-29T07:04:02;23.50;1.00
21255;DHT22;10785;50.674;17.954;2023-05-29T07:06:32;23.40;1.00
21255;DHT22;10785;50.674;17.954;2023-05-29T07:09:02;22.80;1.00
21255;DHT22;10785;50.674;17.954;2023-05-29T07:11:31;22.80;1.00
21255;DHT22;10785;50.674;17.954;2023-05-29T07:13:59;22.10;1.00
21255;DHT22;10785;50.674;17.954;2023-05-29T07:16:28;21.90;1.00
21255;DHT22;10785;50.674;17.954;2023-05-29T07:19:01;21.40;1.00
21255;DHT22;10785;50.674;17.954;2023-05-29T07:21:34;21.40;1.00
21255;DHT22;10785;50.674;17.954;2023-05-29T07:24:06;21.50;1.00
21255;DHT22;10785;50.674;17.954;2023-05-29T07:26:36;21.40;1.00
21255;DHT22;10785;50.674;17.954;2023-05-29T07:29:04;21.30;1.00
21255;DHT22;10785;50.674;17.954;2023-05-29T07:31:33;21.20;3.50
21255;DHT22;10785;50.674;17.954;2023-05-29T07:34:02;21.60;4.50
21255;DHT22;10785;50.674;17.954;2023-05-29T07:36:31;21.90;1.90
21255;DHT22;10785;50.674;17.954;2023-05-29T07:39:04;22.00;2.20
21255;DHT22;10785;50.674;17.954;2023-05-29T07:41:35;21.70;1.00
21255;DHT22;10785;50.674;17.954;2023-05-29T07:44:05;21.30;1.00
21255;DHT22;10785;50.674;17.954;2023-05-29T07:46:34;21.30;1.00
21255;DHT22;10785;50.674;17.954;2023-05-29T07:49:23;20.90;1.00
21255;DHT22;10785;50.674;17.954;2023-05-29T07:51:52;20.70;1.00
21255;DHT22;10785;50.674;17.954;2023-05-29T07:54:22;20.60;1.00
21255;DHT22;10785;50.674;17.954;2023-05-29T07:56:53;20.60;1.00
21255;DHT22;10785;50.674;17.954;2023-05-29T07:59:22;20.60;3.50
21255;DHT22;10785;50.674;17.954;2023-05-29T08:01:51;20.60;4.30
21255;DHT22;10785;50.674;17.954;2023-05-29T08:04:40;20.50;1.00
21255;DHT22;10785;50.674;17.954;2023-05-29T08:07:08;20.60;1.00
21255;DHT22;10785;50.674;17.954;2023-05-29T08:09:39;20.60;1.80
21255;DHT22;10785;50.674;17.954;2023-05-29T08:12:07;20.70;1.10
21255;DHT22;10785;50.674;17.954;2023-05-29T08:14:36;20.50;1.00
21255;DHT22;10785;50.674;17.954;2023-05-29T08:17:05;20.30;1.00
21255;DHT22;10785;50.674;17.954;2023-05-29T08:19:34;20.30;1.00
21255;DHT22;10785;50.674;17.954;2023-05-29T08:22:03;20.40;1.00
21255;DHT22;10785;50.674;17.954;2023-05-29T08:24:33;20.30;1.00
21255;DHT22;10785;50.674;17.954;2023-05-29T08:27:03;20.30;1.00
21255;DHT22;10785;50.674;17.954;2023-05-29T08:29:31;20.50;1.00
21255;DHT22;10785;50.674;17.954;2023-05-29T08:32:00;20.50;1.00
21255;DHT22;10785;50.674;17.954;2023-05-29T08:34:29;20.40;1.00
21255;DHT22;10785;50.674;17.954;2023-05-29T08:36:58;20.40;1.00
21255;DHT22;10785;50.674;17.954;2023-05-29T08:39:27;20.50;1.00
21255;DHT22;10785;50.674;17.954;2023-05-29T08:42:01;20.60;1.00
21255;DHT22;10785;50.674;17.954;2023-05-29T08:44:31;20.70;1.00
21255;DHT22;10785;50.674;17.954;2023-05-29T08:47:02;20.80;1.00
21255;DHT22;10785;50.674;17.954;2023-05-29T08:49:37;20.90;1.00
21255;DHT22;10785;50.674;17.954;2023-05-29T08:52:11;21.00;1.00
21255;DHT22;10785;50.674;17.954;2023-05-29T08:54:40;20.80;1.00
21255;DHT22;10785;50.674;17.954;2023-05-29T08:57:09;21.10;1.00
21255;DHT22;10785;50.674;17.954;2023-05-29T08:59:42;21.30;1.00
21255;DHT22;10785;50.674;17.954;2023-05-29T09:02:11;21.50;1.00
21255;DHT22;10785;50.674;17.954;2023-05-29T09:04:41;21.30;1.00
21255;DHT22;10785;50.674;17.954;2023-05-29T09:07:12;21.30;1.00
21255;DHT22;10785;50.674;17.954;2023-05-29T09:09:41;21.30;1.00
21255;DHT22;10785;50.674;17.954;2023-05-29T09:12:10;21.20;1.00
21255;DHT22;10785;50.674;17.954;2023-05-29T09:14:41;21.20;1.00
21255;DHT22;10785;50.674;17.954;2023-05-29T09:17:13;21.10;1.00
21255;DHT22;10785;50.674;17.954;2023-05-29T09:19:42;21.40;1.00
21255;DHT22;10785;50.674;17.954;2023-05-29T09:22:13;21.60;1.00
21255;DHT22;10785;50.674;17.954;2023-05-29T09:24:47;21.60;1.00
21255;DHT22;10785;50.674;17.954;2023-05-29T09:27:17;21.60;1.00
21255;DHT22;10785;50.674;17.954;2023-05-29T09:29:47;21.60;1.00
21255;DHT22;10785;50.674;17.954;2023-05-29T09:32:17;21.50;1.00
21255;DHT22;10785;50.674;17.954;2023-05-29T09:34:46;21.20;1.00
21255;DHT22;10785;50.674;17.954;2023-05-29T09:37:14;21.20;1.00
21255;DHT22;10785;50.674;17.954;2023-05-29T09:39:49;21.30;1.00
21255;DHT22;10785;50.674;17.954;2023-05-29T09:42:18;21.60;1.00
21255;DHT22;10785;50.674;17.954;2023-05-29T09:44:50;21.60;1.00
21255;DHT22;10785;50.674;17.954;2023-05-29T09:47:20;21.50;1.00
21255;DHT22;10785;50.674;17.954;2023-05-29T09:49:49;21.40;1.00
21255;DHT22;10785;50.674;17.954;2023-05-29T09:52:21;21.10;1.00
21255;DHT22;10785;50.674;17.954;2023-05-29T09:54:51;21.30;1.00
21255;DHT22;10785;50.674;17.954;2023-05-29T09:57:20;21.30;1.00
21255;DHT22;10785;50.674;17.954;2023-05-29T09:59:52;21.50;1.00
21255;DHT22;10785;50.674;17.954;2023-05-29T10:02:21;21.50;1.00
21255;DHT22;10785;50.674;17.954;2023-05-29T10:04:50;21.80;1.00
21255;DHT22;10785;50.674;17.954;2023-05-29T10:07:25;22.00;1.00
21255;DHT22;10785;50.674;17.954;2023-05-29T10:09:58;21.90;1.00
21255;DHT22;10785;50.674;17.954;2023-05-29T10:12:36;21.90;1.00
21255;DHT22;10785;50.674;17.954;2023-05-29T10:15:12;22.00;1.00
21255;DHT22;10785;50.674;17.954;2023-05-29T10:17:43;22.30;1.00
21255;DHT22;10785;50.674;17.954;2023-05-29T10:20:14;22.50;1.00
21255;DHT22;10785;50.674;17.954;2023-05-29T10:22:49;22.60;1.00
21255;DHT22;10785;50.674;17.954;2023-05-29T10:25:19;22.70;1.00
21255;DHT22;10785;50.674;17.954;2023-05-29T10:27:48;22.40;1.00
21255;DHT22;10785;50.674;17.954;2023-05-29T10:30:27;22.30;1.00
21255;DHT22;10785;50.674;17.954;2023-05-29T10:33:17;22.10;1.00
21255;DHT22;10785;50.674;17.954;2023-05-29T10:35:55;22.10;1.00
21255;DHT22;10785;50.674;17.954;2023-05-29T10:38:25;22.10;1.00
21255;DHT22;10785;50.674;17.954;2023-05-29T10:40:54;22.00;1.00
21255;DHT22;10785;50.674;17.954;2023-05-29T10:43:30;22.20;1.00
21255;DHT22;10785;50.674;17.954;2023-05-29T10:46:02;22.20;1.00
21255;DHT22;10785;50.674;17.954;2023-05-29T10:48:40;22.30;1.00
21255;DHT22;10785;50.674;17.954;2023-05-29T10:51:25;22.50;1.00
21255;DHT22;10785;50.674;17.954;2023-05-29T10:53:54;22.40;1.00
21255;DHT22;10785;50.674;17.954;2023-05-29T10:56:27;22.40;1.00
21255;DHT22;10785;50.674;17.954;2023-05-29T10:58:58;22.20;1.00
21255;DHT22;10785;50.674;17.954;2023-05-29T11:01:30;22.20;1.00
21255;DHT22;10785;50.674;17.954;2023-05-29T11:07:01;22.50;1.00
21255;DHT22;10785;50.674;17.954;2023-05-29T11:09:37;22.50;1.00
21255;DHT22;10785;50.674;17.954;2023-05-29T11:12:16;22.50;1.00
21255;DHT22;10785;50.674;17.954;2023-05-29T11:15:00;22.20;1.00
21255;DHT22;10785;50.674;17.954;2023-05-29T11:17:43;22.30;1.00
21255;DHT22;10785;50.674;17.954;2023-05-29T11:20:28;22.40;1.00
21255;DHT22;10785;50.674;17.954;2023-05-29T11:23:04;22.30;1.00
21255;DHT22;10785;50.674;17.954;2023-05-29T11:25:36;22.20;1.00
21255;DHT22;10785;50.674;17.954;2023-05-29T11:28:05;22.50;1.00
21255;DHT22;10785;50.674;17.954;2023-05-29T11:30:42;22.50;1.00
21255;DHT22;10785;50.674;17.954;2023-05-29T11:33:20;22.40;1.00
21255;DHT22;10785;50.674;17.954;2023-05-29T11:35:57;22.10;1.00
21255;DHT22;10785;50.674;17.954;2023-05-29T11:38:27;22.20;1.00
21255;DHT22;10785;50.674;17.954;2023-05-29T11:40:56;22.20;1.00
21255;DHT22;10785;50.674;17.954;2023-05-29T11:43:26;22.40;1.00
21255;DHT22;10785;50.674;17.954;2023-05-29T11:45:54;22.60;1.00
21255;DHT22;10785;50.674;17.954;2023-05-29T11:48:25;22.60;1.00
21255;DHT22;10785;50.674;17.954;2023-05-29T11:50:54;22.80;1.00
21255;DHT22;10785;50.674;17.954;2023-05-29T11:53:23;22.90;1.00
21255;DHT22;10785;50.674;17.954;2023-05-29T11:56:06;22.80;1.00
21255;DHT22;10785;50.674;17.954;2023-05-29T11:58:36;22.60;1.00
21255;DHT22;10785;50.674;17.954;2023-05-29T12:01:04;22.80;1.00
21255;DHT22;10785;50.674;17.954;2023-05-29T12:03:39;23.00;1.00
21255;DHT22;10785;50.674;17.954;2023-05-29T12:06:08;23.00;1.00
21255;DHT22;10785;50.674;17.954;2023-05-29T12:08:38;22.80;1.00
21255;DHT22;10785;50.674;17.954;2023-05-29T12:11:08;22.80;1.00
21255;DHT22;10785;50.674;17.954;2023-05-29T12:13:37;22.70;1.00
21255;DHT22;10785;50.674;17.954;2023-05-29T12:16:06;22.60;1.00
21255;DHT22;10785;50.674;17.954;2023-05-29T12:18:35;22.60;1.00
21255;DHT22;10785;50.674;17.954;2023-05-29T12:21:05;22.80;1.00
21255;DHT22;10785;50.674;17.954;2023-05-29T12:23:34;22.90;1.00
21255;DHT22;10785;50.674;17.954;2023-05-29T12:26:03;22.80;1.00
21255;DHT22;10785;50.674;17.954;2023-05-29T12:28:33;22.60;1.00
21255;DHT22;10785;50.674;17.954;2023-05-29T12:31:02;22.70;1.00
21255;DHT22;10785;50.674;17.954;2023-05-29T12:33:31;22.70;1.00
21255;DHT22;10785;50.674;17.954;2023-05-29T12:36:07;22.80;1.00
21255;DHT22;10785;50.674;17.954;2023-05-29T12:38:46;22.90;1.00
21255;DHT22;10785;50.674;17.954;2023-05-29T12:41:25;22.60;1.00
21255;DHT22;10785;50.674;17.954;2023-05-29T12:43:54;22.60;1.00
21255;DHT22;10785;50.674;17.954;2023-05-29T12:46:24;22.80;1.00
21255;DHT22;10785;50.674;17.954;2023-05-29T12:48:54;23.20;1.00
21255;DHT22;10785;50.674;17.954;2023-05-29T12:51:25;23.30;1.00
21255;DHT22;10785;50.674;17.954;2023-05-29T12:53:54;23.20;1.00
21255;DHT22;10785;50.674;17.954;2023-05-29T12:56:25;23.10;1.00
21255;DHT22;10785;50.674;17.954;2023-05-29T12:58:54;22.80;1.00
21255;DHT22;10785;50.674;17.954;2023-05-29T13:01:23;22.80;1.00
21255;DHT22;10785;50.674;17.954;2023-05-29T13:03:51;22.90;1.00
21255;DHT22;10785;50.674;17.954;2023-05-29T13:06:20;22.80;1.00
21255;DHT22;10785;50.674;17.954;2023-05-29T13:08:50;22.90;1.00
21255;DHT22;10785;50.674;17.954;2023-05-29T13:11:19;22.90;1.00
21255;DHT22;10785;50.674;17.954;2023-05-29T13:13:49;22.90;1.00
21255;DHT22;10785;50.674;17.954;2023-05-29T13:16:18;22.80;1.00
21255;DHT22;10785;50.674;17.954;2023-05-29T13:18:46;22.80;1.00
21255;DHT22;10785;50.674;17.954;2023-05-29T13:21:15;22.80;1.00
21255;DHT22;10785;50.674;17.954;2023-05-29T13:23:44;22.90;1.00
21255;DHT22;10785;50.674;17.954;2023-05-29T13:26:14;23.00;1.00
21255;DHT22;10785;50.674;17.954;2023-05-29T13:28:42;22.90;1.00
21255;DHT22;10785;50.674;17.954;2023-05-29T13:31:11;23.00;1.00
21255;DHT22;10785;50.674;17.954;2023-05-29T13:33:40;23.00;1.00
21255;DHT22;10785;50.674;17.954;2023-05-29T13:36:08;22.80;1.00
21255;DHT22;10785;50.674;17.954;2023-05-29T13:38:37;22.80;1.00
21255;DHT22;10785;50.674;17.954;2023-05-29T13:41:06;22.80;1.00
21255;DHT22;10785;50.674;17.954;2023-05-29T13:43:36;22.70;1.00
21255;DHT22;10785;50.674;17.954;2023-05-29T13:46:11;22.80;1.00
21255;DHT22;10785;50.674;17.954;2023-05-29T13:48:40;22.90;1.00
21255;DHT22;10785;50.674;17.954;2023-05-29T13:51:09;22.90;1.00
21255;DHT22;10785;50.674;17.954;2023-05-29T13:53:37;22.80;1.00
21255;DHT22;10785;50.674;17.954;2023-05-29T13:56:06;23.00;1.00
21255;DHT22;10785;50.674;17.954;2023-05-29T13:58:36;22.90;1.00
21255;DHT22;10785;50.674;17.954;2023-05-29T14:01:05;23.00;1.00
21255;DHT22;10785;50.674;17.954;2023-05-29T14:03:33;22.90;1.00
21255;DHT22;10785;50.674;17.954;2023-05-29T14:06:03;22.80;1.00
21255;DHT22;10785;50.674;17.954;2023-05-29T14:08:33;22.60;1.00
21255;DHT22;10785;50.674;17.954;2023-05-29T14:11:01;22.50;1.00
21255;DHT22;10785;50.674;17.954;2023-05-29T14:13:30;22.40;1.00
21255;DHT22;10785;50.674;17.954;2023-05-29T14:16:00;22.40;1.00
21255;DHT22;10785;50.674;17.954;2023-05-29T14:18:29;22.50;1.00
21255;DHT22;10785;50.674;17.954;2023-05-29T14:20:57;22.70;1.00
21255;DHT22;10785;50.674;17.954;2023-05-29T14:23:26;22.80;1.00
21255;DHT22;10785;50.674;17.954;2023-05-29T14:25:55;23.00;1.00
21255;DHT22;10785;50.674;17.954;2023-05-29T14:28:24;23.10;1.00
21255;DHT22;10785;50.674;17.954;2023-05-29T14:30:52;23.00;1.00
21255;DHT22;10785;50.674;17.954;2023-05-29T14:33:22;22.90;1.00
21255;DHT22;10785;50.674;17.954;2023-05-29T14:35:52;22.90;1.00
21255;DHT22;10785;50.674;17.954;2023-05-29T14:38:21;22.80;1.00
21255;DHT22;10785;50.674;17.954;2023-05-29T14:40:49;22.70;1.00
21255;DHT22;10785;50.674;17.954;2023-05-29T14:43:35;22.70;1.00
21255;DHT22;10785;50.674;17.954;2023-05-29T14:46:04;22.80;1.00
21255;DHT22;10785;50.674;17.954;2023-05-29T14:48:34;23.00;1.00
21255;DHT22;10785;50.674;17.954;2023-05-29T14:51:03;22.80;1.00
21255;DHT22;10785;50.674;17.954;2023-05-29T14:53:31;22.90;1.00
21255;DHT22;10785;50.674;17.954;2023-05-29T14:56:00;22.90;1.00
21255;DHT22;10785;50.674;17.954;2023-05-29T14:58:29;22.90;1.00
21255;DHT22;10785;50.674;17.954;2023-05-29T15:00:57;23.10;1.00
21255;DHT22;10785;50.674;17.954;2023-05-29T15:03:26;23.00;1.00
21255;DHT22;10785;50.674;17.954;2023-05-29T15:05:57;23.00;1.00
21255;DHT22;10785;50.674;17.954;2023-05-29T15:08:26;23.00;1.00
21255;DHT22;10785;50.674;17.954;2023-05-29T15:10:55;23.00;1.00
21255;DHT22;10785;50.674;17.954;2023-05-29T15:13:24;23.10;1.00
21255;DHT22;10785;50.674;17.954;2023-05-29T15:15:53;22.90;1.00
21255;DHT22;10785;50.674;17.954;2023-05-29T15:18:22;22.90;1.00
21255;DHT22;10785;50.674;17.954;2023-05-29T15:20:50;22.90;1.00
21255;DHT22;10785;50.674;17.954;2023-05-29T15:23:22;22.90;1.00
21255;DHT22;10785;50.674;17.954;2023-05-29T15:25:50;22.80;1.00
21255;DHT22;10785;50.674;17.954;2023-05-29T15:28:20;22.80;1.00
21255;DHT22;10785;50.674;17.954;2023-05-29T15:30:49;22.90;1.00
21255;DHT22;10785;50.674;17.954;2023-05-29T15:33:18;22.90;1.00
21255;DHT22;10785;50.674;17.954;2023-05-29T15:35:47;22.90;1.00
21255;DHT22;10785;50.674;17.954;2023-05-29T15:38:16;22.90;1.00
21255;DHT22;10785;50.674;17.954;2023-05-29T15:40:46;22.90;1.00
21255;DHT22;10785;50.674;17.954;2023-05-29T15:43:15;22.90;1.00
21255;DHT22;10785;50.674;17.954;2023-05-29T15:45:44;22.90;1.00
21255;DHT22;10785;50.674;17.954;2023-05-29T15:48:14;22.90;1.00
21255;DHT22;10785;50.674;17.954;2023-05-29T15:50:43;22.80;1.00
21255;DHT22;10785;50.674;17.954;2023-05-29T15:53:11;22.70;1.00
21255;DHT22;10785;50.674;17.954;2023-05-29T15:55:40;22.70;1.00
21255;DHT22;10785;50.674;17.954;2023-05-29T15:58:11;22.60;1.00
21255;DHT22;10785;50.674;17.954;2023-05-29T16:00:40;22.50;1.00
21255;DHT22;10785;50.674;17.954;2023-05-29T16:03:08;22.60;1.00
21255;DHT22;10785;50.674;17.954;2023-05-29T16:05:37;22.50;1.00
21255;DHT22;10785;50.674;17.954;2023-05-29T16:08:06;22.50;1.00
21255;DHT22;10785;50.674;17.954;2023-05-29T16:10:35;22.50;1.00